createdAt,value
2018-08-24T00:00:19.758Z,24.13
2018-08-24T00:02:48.120Z,21.57
2018-08-24T00:05:16.559Z,20.27
2018-08-24T00:07:45.014Z,22.27
2018-08-24T00:10:13.604Z,24.73
2018-08-24T00:12:41.940Z,19.43
2018-08-24T00:15:10.280Z,23.80
2018-08-24T00:17:38.667Z,23.73
2018-08-24T00:20:07.116Z,18.93
2018-08-24T00:22:35.603Z,21.37
2018-08-24T00:25:04.043Z,20.70
2018-08-24T00:27:32.436Z,20.87
2018-08-24T00:30:00.844Z,19.70
2018-08-24T00:32:29.229Z,22.30
2018-08-24T00:34:57.559Z,19.20
2018-08-24T00:37:25.892Z,17.30
2018-08-24T00:39:54.272Z,26.43
2018-08-24T00:42:22.617Z,26.13
2018-08-24T00:44:50.910Z,21.90
2018-08-24T00:47:19.292Z,21.43
2018-08-24T00:49:47.824Z,19.73
2018-08-24T00:52:16.155Z,20.30
2018-08-24T00:54:44.488Z,24.20
2018-08-24T00:57:12.869Z,24.30
2018-08-24T00:59:41.276Z,24.23
2018-08-24T01:02:09.640Z,24.37
2018-08-24T01:04:37.998Z,23.47
2018-08-24T01:07:13.529Z,24.87
2018-08-24T01:09:42.420Z,22.17
2018-08-24T01:12:11.861Z,20.83
2018-08-24T01:14:41.942Z,20.77
2018-08-24T01:17:15.602Z,24.67
2018-08-24T01:19:44.448Z,26.70
2018-08-24T01:22:12.813Z,26.10
2018-08-24T01:24:41.212Z,26.13
2018-08-24T01:27:09.849Z,28.00
2018-08-24T01:29:40.327Z,26.73
2018-08-24T01:32:08.714Z,25.33
2018-08-24T01:34:37.884Z,29.63
2018-08-24T01:37:06.283Z,27.53
2018-08-24T01:39:35.016Z,26.17
2018-08-24T01:42:03.685Z,24.33
2018-08-24T01:44:32.044Z,23.47
2018-08-24T01:47:00.431Z,27.70
2018-08-24T01:49:28.787Z,25.40
2018-08-24T01:51:57.127Z,27.47
2018-08-24T01:54:25.490Z,24.20
2018-08-24T01:56:53.872Z,24.40
2018-08-24T01:59:22.175Z,30.93
2018-08-24T02:01:50.588Z,27.87
2018-08-24T02:04:18.913Z,27.53
2018-08-24T02:06:47.255Z,26.73
2018-08-24T02:09:15.639Z,25.97
2018-08-24T02:11:47.277Z,25.43
2018-08-24T02:14:21.067Z,24.10
2018-08-24T02:16:49.440Z,27.97
2018-08-24T02:19:17.895Z,26.67
2018-08-24T02:21:51.525Z,30.87
2018-08-24T02:24:19.856Z,24.97
2018-08-24T02:26:48.344Z,28.33
2018-08-24T02:29:16.696Z,26.93
2018-08-24T02:31:49.048Z,25.57
2018-08-24T02:34:17.575Z,27.17
2018-08-24T02:36:46.198Z,27.53
2018-08-24T02:39:17.555Z,26.33
2018-08-24T02:41:45.939Z,14.77
2018-08-24T02:44:14.349Z,6.90
2018-08-24T02:46:43.712Z,5.77
2018-08-24T02:49:12.331Z,6.30
2018-08-24T02:51:40.668Z,4.63
2018-08-24T02:54:09.061Z,3.90
2018-08-24T02:56:37.403Z,5.77
2018-08-24T02:59:05.785Z,3.87
2018-08-24T03:01:34.160Z,5.27
2018-08-24T03:04:02.485Z,4.20
2018-08-24T03:06:30.790Z,4.30
2018-08-24T03:08:59.120Z,5.33
2018-08-24T03:11:27.456Z,5.13
2018-08-24T03:13:55.819Z,5.70
2018-08-24T03:16:24.229Z,6.43
2018-08-24T03:18:52.488Z,4.10
2018-08-24T03:21:20.785Z,7.47
2018-08-24T03:23:49.116Z,6.30
2018-08-24T03:26:17.415Z,5.47
2018-08-24T03:28:45.780Z,5.30
2018-08-24T03:31:14.116Z,4.97
2018-08-24T03:33:42.430Z,4.97
2018-08-24T03:36:10.752Z,4.37
2018-08-24T03:38:39.108Z,4.67
2018-08-24T03:41:07.479Z,6.27
2018-08-24T03:43:35.824Z,6.53
2018-08-24T03:46:04.443Z,4.93
2018-08-24T03:48:33.044Z,4.63
2018-08-24T03:51:01.429Z,5.87
2018-08-24T03:53:29.790Z,5.23
2018-08-24T03:55:58.080Z,6.50
2018-08-24T03:58:26.420Z,5.77
2018-08-24T04:00:59.432Z,4.90
2018-08-24T04:03:28.844Z,6.37
2018-08-24T04:05:57.301Z,5.80
2018-08-24T04:08:25.663Z,6.30
2018-08-24T04:10:53.979Z,7.07
2018-08-24T04:13:22.336Z,7.43
2018-08-24T04:15:50.806Z,7.60
2018-08-24T04:18:19.120Z,11.03
2018-08-24T04:20:47.495Z,8.67
2018-08-24T04:23:15.786Z,8.10
2018-08-24T04:25:44.297Z,9.03
2018-08-24T04:28:12.498Z,11.07
2018-08-24T04:30:40.839Z,8.17
2018-08-24T04:33:09.184Z,10.07
2018-08-24T04:35:37.705Z,10.13
2018-08-24T04:38:06.492Z,11.60
2018-08-24T04:40:34.835Z,10.60
2018-08-24T04:43:03.148Z,12.17
2018-08-24T04:45:31.794Z,10.57
2018-08-24T04:48:00.093Z,8.43
2018-08-24T04:50:28.492Z,11.80
2018-08-24T04:52:56.820Z,11.80
2018-08-24T04:55:25.142Z,9.43
2018-08-24T04:57:53.455Z,8.40
2018-08-24T05:00:21.785Z,8.63
2018-08-24T05:02:50.095Z,8.17
2018-08-24T05:05:18.424Z,6.43
2018-08-24T05:07:46.804Z,6.33
2018-08-24T05:10:15.189Z,9.40
2018-08-24T05:12:43.600Z,4.93
2018-08-24T05:15:12.028Z,8.53
2018-08-24T05:17:40.400Z,8.30
2018-08-24T05:20:08.840Z,8.97
2018-08-24T05:22:37.277Z,10.87
2018-08-24T05:25:05.970Z,10.53
2018-08-24T05:27:34.260Z,7.93
2018-08-24T05:30:02.584Z,6.17
2018-08-24T05:32:30.940Z,10.00
2018-08-24T05:34:59.340Z,8.30
2018-08-24T05:37:27.731Z,8.80
2018-08-24T05:39:56.199Z,8.00
2018-08-24T05:42:24.546Z,8.63
2018-08-24T05:44:52.884Z,11.40
2018-08-24T05:47:21.279Z,5.97
2018-08-24T05:49:49.613Z,6.70
2018-08-24T05:52:17.959Z,7.63
2018-08-24T05:54:46.288Z,7.90
2018-08-24T05:57:14.793Z,8.00
2018-08-24T05:59:43.236Z,10.87
2018-08-24T06:02:11.614Z,5.00
2018-08-24T06:04:39.980Z,13.17
2018-08-24T06:07:08.284Z,7.47
2018-08-24T06:09:36.672Z,10.70
2018-08-24T06:12:05.024Z,11.30
2018-08-24T06:14:33.333Z,8.30
2018-08-24T06:18:04.556Z,7.30
2018-08-24T06:20:32.856Z,8.17
2018-08-24T06:23:01.197Z,8.40
2018-08-24T06:25:29.680Z,7.37
2018-08-24T06:27:58.020Z,9.97
2018-08-24T06:30:26.344Z,9.87
2018-08-24T06:32:54.769Z,15.40
2018-08-24T06:35:23.104Z,8.67
2018-08-24T06:37:51.522Z,8.10
2018-08-24T06:40:19.931Z,6.87
2018-08-24T06:42:49.260Z,7.47
2018-08-24T06:45:17.644Z,8.70
2018-08-24T06:47:45.996Z,9.90
2018-08-24T06:50:14.362Z,10.03
2018-08-24T06:52:42.681Z,7.80
2018-08-24T06:55:11.005Z,7.47
2018-08-24T06:57:39.536Z,10.90
2018-08-24T07:00:08.594Z,9.70
2018-08-24T07:02:37.000Z,10.23
2018-08-24T07:05:05.677Z,9.33
2018-08-24T07:07:33.992Z,10.70
2018-08-24T07:10:02.384Z,11.87
2018-08-24T07:12:30.720Z,11.90
2018-08-24T07:14:59.085Z,9.43
2018-08-24T07:18:04.088Z,9.43
2018-08-24T07:20:32.743Z,8.97
2018-08-24T07:23:01.336Z,8.90
2018-08-24T07:25:29.675Z,9.73
2018-08-24T07:27:58.016Z,10.43
2018-08-24T07:30:32.911Z,8.80
2018-08-24T07:33:01.226Z,8.27
2018-08-24T07:35:29.583Z,10.57
2018-08-24T07:37:57.976Z,12.37
2018-08-24T07:40:26.298Z,11.77
2018-08-24T07:42:54.612Z,9.67
2018-08-24T07:45:22.964Z,9.00
2018-08-24T07:47:51.292Z,12.30
2018-08-24T07:50:19.661Z,14.27
2018-08-24T07:52:47.960Z,7.77
2018-08-24T07:55:16.323Z,11.17
2018-08-24T07:57:44.614Z,9.23
2018-08-24T08:00:12.993Z,10.23
2018-08-24T08:02:45.736Z,10.67
2018-08-24T08:05:14.372Z,9.70
2018-08-24T08:07:42.647Z,10.13
2018-08-24T08:10:11.271Z,12.50
2018-08-24T08:12:39.644Z,10.47
2018-08-24T08:15:09.008Z,9.77
2018-08-24T08:17:38.253Z,11.83
2018-08-24T08:20:07.044Z,7.93
2018-08-24T08:22:35.603Z,11.33
2018-08-24T08:25:03.992Z,12.97
2018-08-24T08:27:32.824Z,12.03
2018-08-24T08:30:03.429Z,14.27
2018-08-24T08:32:32.181Z,11.00
2018-08-24T08:35:00.628Z,16.17
2018-08-24T08:37:28.996Z,11.23
2018-08-24T08:40:01.722Z,11.53
2018-08-24T08:42:30.297Z,10.40
2018-08-24T08:44:59.100Z,10.40
2018-08-24T08:47:27.506Z,11.13
2018-08-24T08:49:55.986Z,8.03
2018-08-24T08:52:24.357Z,12.77
2018-08-24T08:54:52.774Z,11.73
2018-08-24T08:57:21.224Z,13.87
2018-08-24T08:59:49.679Z,9.50
2018-08-24T09:02:18.031Z,9.03
2018-08-24T09:04:46.405Z,10.30
2018-08-24T09:07:14.729Z,9.90
2018-08-24T09:09:43.059Z,8.23
2018-08-24T09:12:11.345Z,9.87
2018-08-24T09:14:39.900Z,14.17
2018-08-24T09:17:13.524Z,13.27
2018-08-24T09:19:47.160Z,14.13
2018-08-24T09:22:20.922Z,10.60
2018-08-24T09:24:54.811Z,10.90
2018-08-24T09:27:29.812Z,11.77
2018-08-24T09:30:01.204Z,11.03
2018-08-24T09:32:29.642Z,12.20
2018-08-24T09:34:57.947Z,12.83
2018-08-24T09:37:36.779Z,9.60
2018-08-24T09:40:05.872Z,12.40
2018-08-24T09:42:34.341Z,9.90
2018-08-24T09:45:02.852Z,10.43
2018-08-24T09:47:36.320Z,10.60
2018-08-24T09:50:10.139Z,36.23
2018-08-24T09:52:38.644Z,21.70
2018-08-24T09:55:07.064Z,18.23
2018-08-24T09:57:35.419Z,22.10
2018-08-24T10:00:03.788Z,20.27
2018-08-24T10:02:37.437Z,25.27
2018-08-24T10:05:11.085Z,26.70
2018-08-24T10:07:45.064Z,27.87
2018-08-24T10:10:13.381Z,27.07
2018-08-24T10:12:41.900Z,28.17
2018-08-24T10:15:10.554Z,26.33
2018-08-24T10:17:38.861Z,23.47
2018-08-24T10:20:07.421Z,22.17
2018-08-24T10:22:35.887Z,23.43
2018-08-24T10:25:04.336Z,20.23
2018-08-24T10:27:32.994Z,21.00
2018-08-24T10:30:01.386Z,21.20
2018-08-24T10:32:29.720Z,19.60
2018-08-24T10:34:58.029Z,19.60
2018-08-24T10:37:26.376Z,19.60
2018-08-24T10:39:54.698Z,17.37
2018-08-24T10:42:23.019Z,15.80
2018-08-24T10:44:51.540Z,15.27
2018-08-24T10:47:19.985Z,12.60
2018-08-24T10:49:48.264Z,12.80
2018-08-24T10:52:16.630Z,12.83
2018-08-24T10:54:45.047Z,11.33
2018-08-24T10:57:13.339Z,10.30
2018-08-24T10:59:41.788Z,11.23
2018-08-24T11:02:10.152Z,9.83
2018-08-24T11:04:38.410Z,6.43
2018-08-24T11:07:06.773Z,10.27
2018-08-24T11:09:35.144Z,11.07
2018-08-24T11:12:03.468Z,11.17
2018-08-24T11:14:31.891Z,6.93
2018-08-24T11:17:00.362Z,7.33
2018-08-24T11:19:28.590Z,7.17
2018-08-24T11:21:57.013Z,8.80
2018-08-24T11:24:25.341Z,7.50
2018-08-24T11:26:53.794Z,5.53
2018-08-24T11:29:22.143Z,3.80
2018-08-24T11:31:50.391Z,4.27
2018-08-24T11:34:18.703Z,7.00
2018-08-24T11:36:47.010Z,5.30
2018-08-24T11:39:15.420Z,5.60
2018-08-24T11:41:43.955Z,4.57
2018-08-24T11:44:12.252Z,3.70
2018-08-24T11:46:40.604Z,6.03
2018-08-24T11:49:09.064Z,4.00
2018-08-24T11:51:37.467Z,5.65
2018-08-24T11:54:05.993Z,4.65
2018-08-24T11:56:34.304Z,7.03
2018-08-24T11:59:02.849Z,8.07
2018-08-24T12:01:31.204Z,5.37
2018-08-24T12:03:59.629Z,4.97
2018-08-24T12:06:28.756Z,7.80
2018-08-24T12:08:57.350Z,7.70
2018-08-24T12:11:25.750Z,8.53
2018-08-24T12:13:54.221Z,8.60
2018-08-24T12:16:22.508Z,3.75
2018-08-24T12:18:50.878Z,6.45
2018-08-24T12:21:19.389Z,6.85
2018-08-24T12:23:47.729Z,5.80
2018-08-24T12:26:16.057Z,8.48
2018-08-24T12:28:44.407Z,4.77
2018-08-24T12:31:12.757Z,6.10
2018-08-24T12:33:41.092Z,8.00
2018-08-24T12:36:14.700Z,6.23
2018-08-24T12:38:43.178Z,7.70
2018-08-24T12:41:11.920Z,6.37
2018-08-24T12:43:40.263Z,9.13
2018-08-24T12:46:08.940Z,6.97
2018-08-24T12:48:37.285Z,5.00
2018-08-24T12:51:05.709Z,6.87
2018-08-24T12:53:34.176Z,6.30
2018-08-24T12:56:02.573Z,4.03
2018-08-24T12:58:30.969Z,7.78
2018-08-24T13:00:59.361Z,4.70
2018-08-24T13:03:27.752Z,6.85
2018-08-24T13:05:56.130Z,7.12
2018-08-24T13:08:24.513Z,6.20
2018-08-24T13:10:52.905Z,3.60
2018-08-24T13:13:21.250Z,4.42
2018-08-24T13:15:49.598Z,4.17
2018-08-24T13:18:17.936Z,6.22
2018-08-24T13:20:46.608Z,8.03
2018-08-24T13:23:14.944Z,7.17
2018-08-24T13:25:43.301Z,6.12
2018-08-24T13:28:11.738Z,8.43
2018-08-24T13:30:40.157Z,3.98
2018-08-24T13:33:08.685Z,7.53
2018-08-24T13:35:38.182Z,6.07
2018-08-24T13:38:06.858Z,3.23
2018-08-24T13:40:35.315Z,6.10
2018-08-24T13:43:03.664Z,7.50
2018-08-24T13:45:32.075Z,5.87
2018-08-24T13:48:00.454Z,8.63
2018-08-24T13:50:28.881Z,4.27
2018-08-24T13:52:57.306Z,5.10
2018-08-24T13:55:25.614Z,4.70
2018-08-24T13:57:54.116Z,2.90
2018-08-24T14:00:22.485Z,3.23
2018-08-24T14:02:50.855Z,3.87
2018-08-24T14:05:19.254Z,3.43
2018-08-24T14:07:47.529Z,3.00
2018-08-24T14:10:15.914Z,4.27
2018-08-24T14:12:44.249Z,2.10
2018-08-24T14:15:12.621Z,3.97
2018-08-24T14:17:41.207Z,5.10
2018-08-24T14:20:09.600Z,4.17
2018-08-24T14:22:38.149Z,5.53
2018-08-24T14:25:06.610Z,3.97
2018-08-24T14:27:35.020Z,3.70
2018-08-24T14:30:03.397Z,3.93
2018-08-24T14:32:31.728Z,3.93
2018-08-24T14:35:00.265Z,5.63
2018-08-24T14:37:28.667Z,8.83
2018-08-24T14:39:57.026Z,6.20
2018-08-24T14:42:25.461Z,5.50
2018-08-24T14:44:53.785Z,5.97
2018-08-24T14:47:22.125Z,3.30
2018-08-24T14:49:50.801Z,4.03
2018-08-24T14:52:19.140Z,5.43
2018-08-24T14:54:47.424Z,9.23
2018-08-24T14:57:15.801Z,5.90
2018-08-24T14:59:44.363Z,6.00
2018-08-24T15:02:12.721Z,4.30
2018-08-24T15:04:41.101Z,5.57
2018-08-24T15:07:09.916Z,3.83
2018-08-24T15:09:38.280Z,4.23
2018-08-24T15:12:07.343Z,5.27
2018-08-24T15:14:35.656Z,6.93
2018-08-24T15:17:04.145Z,5.60
2018-08-24T15:19:32.514Z,6.10
2018-08-24T15:22:00.874Z,17.70
2018-08-24T15:24:29.302Z,21.20
2018-08-24T15:26:57.665Z,6.87
2018-08-24T15:29:26.093Z,3.77
2018-08-24T15:31:54.474Z,4.13
2018-08-24T15:34:22.860Z,3.60
2018-08-24T15:36:51.153Z,6.57
2018-08-24T15:39:19.475Z,3.47
2018-08-24T15:41:47.816Z,4.60
2018-08-24T15:44:16.095Z,4.73
2018-08-24T15:46:44.452Z,8.00
2018-08-24T15:49:12.765Z,2.47
2018-08-24T15:51:41.073Z,3.73
2018-08-24T15:54:09.564Z,5.43
2018-08-24T15:56:37.855Z,7.77
2018-08-24T15:59:06.254Z,5.87
2018-08-24T16:01:34.625Z,4.87
2018-08-24T16:04:02.936Z,5.53
2018-08-24T16:06:31.325Z,5.43
2018-08-24T16:08:59.682Z,5.00
2018-08-24T16:11:28.017Z,5.37
2018-08-24T16:13:56.381Z,4.83
2018-08-24T16:16:24.698Z,6.97
2018-08-24T16:18:53.067Z,5.77
2018-08-24T16:21:21.404Z,3.67
2018-08-24T16:23:49.744Z,4.97
2018-08-24T16:26:25.110Z,6.13
2018-08-24T16:28:53.879Z,6.30
2018-08-24T16:31:22.475Z,7.37
2018-08-24T16:33:54.011Z,5.73
2018-08-24T16:36:22.345Z,8.47
2018-08-24T16:38:50.701Z,4.47
2018-08-24T16:41:19.045Z,4.83
2018-08-24T16:43:47.380Z,6.17
2018-08-24T16:46:16.230Z,7.23
2018-08-24T16:48:44.660Z,2.93
2018-08-24T16:51:13.065Z,6.43
2018-08-24T16:53:41.408Z,6.37
2018-08-24T16:56:09.737Z,5.80
2018-08-24T16:58:38.060Z,4.13
2018-08-24T17:01:06.976Z,4.87
2018-08-24T17:03:35.362Z,5.30
2018-08-24T17:06:03.617Z,9.00
2018-08-24T17:08:31.945Z,5.60
2018-08-24T17:11:00.268Z,5.43
2018-08-24T17:13:28.578Z,7.30
2018-08-24T17:15:57.210Z,4.63
2018-08-24T17:18:25.535Z,12.50
2018-08-24T17:20:54.055Z,10.40
2018-08-24T17:23:22.407Z,6.50
2018-08-24T17:25:50.718Z,4.23
2018-08-24T17:28:19.077Z,11.87
2018-08-24T17:30:47.372Z,6.53
2018-08-24T17:33:15.713Z,12.33
2018-08-24T17:35:44.097Z,12.40
2018-08-24T17:38:12.447Z,7.63
2018-08-24T17:40:40.752Z,6.87
2018-08-24T17:43:09.085Z,7.27
2018-08-24T17:45:37.421Z,4.80
2018-08-24T17:48:05.912Z,7.97
2018-08-24T17:50:34.324Z,6.97
2018-08-24T17:53:02.661Z,5.17
2018-08-24T17:55:30.989Z,5.13
2018-08-24T17:57:59.837Z,6.47
2018-08-24T18:00:28.213Z,4.07
2018-08-24T18:02:56.496Z,5.67
2018-08-24T18:05:24.828Z,5.73
2018-08-24T18:07:53.150Z,4.03
2018-08-24T18:10:21.816Z,4.90
2018-08-24T18:12:50.145Z,8.00
2018-08-24T18:15:18.500Z,4.93
2018-08-24T18:17:46.801Z,8.17
2018-08-24T18:20:15.152Z,4.17
2018-08-24T18:22:43.481Z,4.30
2018-08-24T18:25:11.856Z,6.50
2018-08-24T18:27:40.284Z,5.37
2018-08-24T18:30:08.763Z,3.03
2018-08-24T18:32:37.120Z,2.03
2018-08-24T18:35:05.529Z,2.23
2018-08-24T18:37:33.891Z,7.87
2018-08-24T18:40:02.241Z,2.33
2018-08-24T18:42:31.033Z,2.77
2018-08-24T18:44:59.344Z,2.90
2018-08-24T18:47:27.688Z,3.70
2018-08-24T18:49:56.101Z,5.03
2018-08-24T18:52:24.456Z,5.47
2018-08-24T18:54:52.825Z,3.00
2018-08-24T18:57:21.274Z,2.47
2018-08-24T18:59:49.768Z,3.63
2018-08-24T19:02:18.115Z,1.63
2018-08-24T19:04:46.425Z,2.77
2018-08-24T19:07:14.968Z,5.40
2018-08-24T19:09:43.305Z,3.70
2018-08-24T19:12:16.861Z,3.47
2018-08-24T19:14:45.237Z,2.60
2018-08-24T19:17:17.912Z,5.13
2018-08-24T19:19:51.667Z,3.33
2018-08-24T19:22:20.051Z,5.37
2018-08-24T19:24:48.364Z,4.17
2018-08-24T19:27:17.702Z,3.50
2018-08-24T19:29:51.310Z,4.83
2018-08-24T19:32:19.788Z,3.50
2018-08-24T19:34:48.785Z,6.80
2018-08-24T19:37:17.325Z,3.87
2018-08-24T19:39:50.965Z,4.03
2018-08-24T19:42:24.682Z,4.00
2018-08-24T19:44:53.488Z,6.20
2018-08-24T19:47:27.136Z,4.17
2018-08-24T19:49:55.493Z,3.07
2018-08-24T19:52:24.020Z,4.97
2018-08-24T19:54:52.365Z,5.23
2018-08-24T19:57:25.908Z,3.50
2018-08-24T19:59:54.318Z,2.87
2018-08-24T20:02:22.652Z,2.63
2018-08-24T20:04:51.053Z,3.57
2018-08-24T20:07:24.627Z,4.47
2018-08-24T20:09:58.525Z,5.63
2018-08-24T20:12:28.073Z,3.83
2018-08-24T20:15:01.689Z,4.40
2018-08-24T20:17:30.693Z,4.23
2018-08-24T20:19:59.669Z,8.07
2018-08-24T20:22:28.303Z,5.73
2018-08-24T20:24:56.752Z,5.23
2018-08-24T20:27:25.041Z,6.90
2018-08-24T20:29:53.379Z,9.33
2018-08-24T20:32:21.761Z,4.53
2018-08-24T20:34:50.173Z,5.80
2018-08-24T20:37:18.555Z,4.17
2018-08-24T20:39:46.896Z,3.90
2018-08-24T20:42:15.257Z,4.17
2018-08-24T20:44:43.593Z,6.87
2018-08-24T20:47:11.978Z,8.17
2018-08-24T20:49:40.314Z,6.17
2018-08-24T20:52:08.708Z,6.37
2018-08-24T20:54:37.110Z,4.57
2018-08-24T20:57:05.913Z,5.50
2018-08-24T20:59:34.290Z,3.90
2018-08-24T21:02:02.625Z,7.53
2018-08-24T21:04:31.053Z,7.60
2018-08-24T21:06:59.404Z,5.13
2018-08-24T21:09:27.746Z,8.93
2018-08-24T21:11:56.312Z,7.53
2018-08-24T21:14:25.321Z,4.80
2018-08-24T21:16:53.782Z,5.97
2018-08-24T21:19:22.293Z,5.17
2018-08-24T21:21:50.668Z,7.07
2018-08-24T21:24:18.982Z,5.67
2018-08-24T21:26:47.577Z,3.87
2018-08-24T21:29:16.048Z,4.60
2018-08-24T21:31:44.540Z,4.80
2018-08-24T21:34:12.932Z,4.83
2018-08-24T21:36:41.456Z,4.97
2018-08-24T21:39:11.297Z,4.60
2018-08-24T21:41:40.353Z,5.90
2018-08-24T21:44:09.136Z,4.40
2018-08-24T21:46:37.489Z,7.53
2018-08-24T21:49:06.550Z,6.60
2018-08-24T21:51:35.369Z,8.20
2018-08-24T21:54:03.930Z,8.07
2018-08-24T21:56:32.228Z,7.30
2018-08-24T21:59:00.608Z,6.47
2018-08-24T22:01:28.992Z,5.17
2018-08-24T22:03:57.415Z,6.83
2018-08-24T22:06:25.788Z,6.57
2018-08-24T22:08:54.176Z,4.47
2018-08-24T22:11:22.638Z,10.07
2018-08-24T22:13:50.992Z,4.27
2018-08-24T22:16:19.300Z,6.20
2018-08-24T22:18:47.693Z,5.73
2018-08-24T22:21:16.185Z,5.37
2018-08-24T22:23:44.572Z,5.90
2018-08-24T22:26:13.022Z,8.27
2018-08-24T22:28:41.403Z,5.50
2018-08-24T22:31:09.757Z,4.57
2018-08-24T22:33:38.143Z,5.03
2018-08-24T22:36:06.502Z,8.07
2018-08-24T22:38:34.838Z,4.43
2018-08-24T22:41:03.153Z,5.40
2018-08-24T22:43:35.885Z,7.30
2018-08-24T22:46:04.720Z,13.00
2018-08-24T22:48:33.633Z,7.90
2018-08-24T22:51:02.147Z,8.90
2018-08-24T22:53:30.556Z,9.03
2018-08-24T22:55:58.897Z,8.43
2018-08-24T22:58:27.361Z,8.40
2018-08-24T23:00:55.670Z,5.63
2018-08-24T23:03:23.976Z,6.87
2018-08-24T23:05:52.320Z,6.93
2018-08-24T23:08:20.664Z,8.87
2018-08-24T23:10:49.034Z,9.47
2018-08-24T23:13:17.515Z,6.93
2018-08-24T23:15:45.872Z,6.53
2018-08-24T23:18:14.222Z,8.20
2018-08-24T23:20:42.644Z,11.20
2018-08-24T23:23:11.017Z,10.27
2018-08-24T23:25:39.394Z,10.07
2018-08-24T23:28:07.740Z,6.53
2018-08-24T23:30:36.108Z,10.57
2018-08-24T23:33:04.525Z,6.10
2018-08-24T23:35:32.967Z,7.17
2018-08-24T23:38:01.350Z,7.10
2018-08-24T23:40:29.716Z,4.67
2018-08-24T23:42:58.217Z,6.23
2018-08-24T23:45:26.590Z,9.13
2018-08-24T23:47:54.953Z,7.47
2018-08-24T23:50:23.381Z,6.83
2018-08-24T23:52:51.793Z,5.67
2018-08-24T23:55:20.153Z,5.83
2018-08-24T23:57:48.504Z,6.20
